Time;durP1;ratioP1;P1;durP2;ratioP2;P2;SDS_P1;SDS_P2;PMS_P1;PMS_P2;Temp;Humidity;BMP_temperature;BMP_pressure;BME280_temperature;BME280_humidity;BME280_pressure;Samples;Min_cycle;Max_cycle;Signal;HPM_P1;HPM_P2
2021/11/24 00:01:39;;;;;;;29.65;18.63;;;;;;;10.14;69.23;100947.78;6122988;23;20041;-61
2021/11/24 00:04:06;;;;;;;26.58;17.23;;;;;;;10.12;69.35;100946.13;6097413;23;20045;-61
2021/11/24 00:06:32;;;;;;;26.90;16.55;;;;;;;10.10;69.42;100943.53;6122695;23;20029;-61
2021/11/24 00:08:59;;;;;;;30.08;16.67;;;;;;;10.07;69.58;100937.56;6123246;23;20033;-62
2021/11/24 00:11:28;;;;;;;25.40;16.50;;;;;;;10.04;69.56;100933.25;6097291;23;20053;-61
2021/11/24 00:13:56;;;;;;;24.80;16.25;;;;;;;10.02;69.59;100935.94;6123089;23;20018;-61
2021/11/24 00:16:24;;;;;;;26.02;15.73;;;;;;;10.01;69.64;100933.34;6122822;23;20040;-62
2021/11/24 00:18:51;;;;;;;21.73;14.18;;;;;;;9.98;69.74;100929.06;6097606;23;20022;-61
2021/11/24 00:21:21;;;;;;;23.10;13.60;;;;;;;9.98;69.82;100926.44;6122675;23;20029;-64
2021/11/24 00:23:48;;;;;;;22.77;15.55;;;;;;;9.98;69.96;100929.06;6097469;23;20085;-63
2021/11/24 00:26:14;;;;;;;23.38;14.88;;;;;;;10.00;69.87;100931.66;6122842;23;20037;-61
2021/11/24 00:28:41;;;;;;;22.70;15.15;;;;;;;10.00;69.76;100931.66;6123185;23;20038;-61
2021/11/24 00:31:08;;;;;;;25.08;17.27;;;;;;;9.99;69.65;100930.78;6123051;23;20033;-62
2021/11/24 00:33:35;;;;;;;27.25;17.75;;;;;;;9.97;69.67;100935.25;6124897;23;20806;-62
2021/11/24 00:36:02;;;;;;;23.38;16.55;;;;;;;9.95;69.75;100926.56;6124900;23;20026;-62
2021/11/24 00:38:28;;;;;;;25.48;17.27;;;;;;;9.94;69.80;100929.25;6098876;23;20022;-62
2021/11/24 00:40:55;;;;;;;26.63;16.98;;;;;;;9.90;69.76;100925.84;6124585;23;20036;-61
2021/11/24 00:43:22;;;;;;;26.67;17.52;;;;;;;9.89;69.84;100932.03;6124959;23;20471;-62
2021/11/24 00:45:50;;;;;;;23.30;15.90;;;;;;;9.87;70.17;100925.97;6099384;23;20040;-62
2021/11/24 00:48:17;;;;;;;22.98;15.70;;;;;;;9.87;70.03;100931.25;6099055;23;20029;-62
2021/11/24 00:50:44;;;;;;;21.70;14.75;;;;;;;9.87;70.32;100920.72;6098894;23;20022;-62
2021/11/24 00:53:10;;;;;;;22.08;14.82;;;;;;;9.88;70.10;100920.63;6124282;23;20021;-61
2021/11/24 00:55:37;;;;;;;21.30;15.00;;;;;;;9.90;70.06;100920.59;6124826;23;20026;-62
2021/11/24 00:58:04;;;;;;;21.10;14.50;;;;;;;9.90;70.10;100920.59;6124389;23;20029;-62
2021/11/24 01:00:31;;;;;;;24.17;15.15;;;;;;;9.92;70.09;100916.16;6124450;23;20030;-61
2021/11/24 01:02:57;;;;;;;24.23;14.23;;;;;;;9.92;70.20;100918.78;6124744;23;20092;-61
2021/11/24 01:05:24;;;;;;;21.05;15.40;;;;;;;9.92;70.08;100918.78;6098980;23;20400;-62
2021/11/24 01:07:51;;;;;;;24.10;14.85;;;;;;;9.93;70.17;100914.34;6124595;23;20626;-62
2021/11/24 01:10:18;;;;;;;20.65;14.43;;;;;;;9.93;70.13;100914.34;6124254;23;20025;-62
2021/11/24 01:12:45;;;;;;;22.50;15.05;;;;;;;9.93;70.11;100917.84;6098859;23;20018;-62
2021/11/24 01:15:12;;;;;;;25.13;15.25;;;;;;;9.94;70.17;100914.31;6098644;23;20029;-62
2021/11/24 01:17:39;;;;;;;20.65;13.68;;;;;;;9.95;70.05;100916.06;6124666;23;20034;-62
2021/11/24 01:20:07;;;;;;;20.98;14.00;;;;;;;9.96;70.13;100909.00;6124045;23;20470;-62
2021/11/24 01:22:34;;;;;;;24.27;15.35;;;;;;;9.98;70.15;100899.28;6098363;23;20443;-61
2021/11/24 01:25:01;;;;;;;22.42;15.57;;;;;;;9.98;70.08;100909.81;6124595;23;20022;-61
2021/11/24 01:27:27;;;;;;;20.92;13.98;;;;;;;9.97;69.81;100903.69;6124355;23;20018;-62
2021/11/24 01:29:54;;;;;;;19.92;13.50;;;;;;;9.96;69.84;100901.09;6124361;23;20018;-61
2021/11/24 01:32:20;;;;;;;21.77;15.13;;;;;;;9.95;69.75;100899.41;6124363;23;20022;-62
2021/11/24 01:34:47;;;;;;;24.10;15.27;;;;;;;9.93;69.91;100902.06;6124316;23;20085;-62
2021/11/24 01:37:14;;;;;;;26.42;14.55;;;;;;;9.90;69.93;100900.41;6124213;23;20073;-62
2021/11/24 01:39:40;;;;;;;24.60;15.27;;;;;;;9.89;70.07;100895.22;6124082;23;20332;-62
2021/11/24 01:42:07;;;;;;;35.65;15.52;;;;;;;9.89;70.00;100897.84;6124165;23;20033;-62
2021/11/24 01:44:34;;;;;;;24.00;15.23;;;;;;;9.88;69.95;100890.88;6123844;23;20478;-61
2021/11/24 01:47:03;;;;;;;26.40;16.20;;;;;;;9.86;70.02;100903.19;6124431;23;20041;-62
2021/11/24 01:49:31;;;;;;;24.35;14.75;;;;;;;9.85;70.17;100902.38;6123561;23;20036;-62
2021/11/24 01:51:58;;;;;;;17.63;13.02;;;;;;;9.84;69.99;100899.78;6124418;23;20026;-62
2021/11/24 01:54:26;;;;;;;28.48;14.15;;;;;;;9.84;70.31;100895.38;6123913;23;20029;-61
2021/11/24 01:56:54;;;;;;;27.02;16.25;;;;;;;9.86;70.45;100900.56;6123965;23;20466;-61
2021/11/24 01:59:21;;;;;;;20.35;14.20;;;;;;;9.88;70.36;100890.88;6098049;23;20475;-61
2021/11/24 02:01:49;;;;;;;21.38;14.32;;;;;;;9.88;70.25;100888.25;6123787;23;20078;-62
2021/11/24 02:04:17;;;;;;;33.85;14.80;;;;;;;9.89;70.22;100887.31;6123590;23;20503;-62
2021/11/24 02:06:44;;;;;;;23.50;14.90;;;;;;;9.90;70.30;100883.78;6098098;23;20700;-61
2021/11/24 02:09:12;;;;;;;31.23;16.80;;;;;;;9.90;70.21;100878.50;6123633;23;20360;-62
2021/11/24 02:11:41;;;;;;;24.25;15.45;;;;;;;9.92;70.41;100881.97;6098320;23;20022;-61
2021/11/24 02:14:09;;;;;;;21.80;14.65;;;;;;;9.91;70.12;100880.25;6097700;23;20022;-62
2021/11/24 02:17:02;;;;;;;20.55;13.75;;;;;;;9.89;70.71;100879.44;6124093;23;20032;-62
2021/11/24 02:19:31;;;;;;;22.95;14.18;;;;;;;9.94;70.12;100879.28;6119316;23;20104;-62
2021/11/24 02:21:58;;;;;;;21.15;14.25;;;;;;;9.94;70.06;100877.47;6098064;23;20022;-62
2021/11/24 02:24:28;;;;;;;22.45;14.93;;;;;;;9.94;70.35;100876.66;6124312;23;20030;-62
2021/11/24 02:26:56;;;;;;;23.42;14.95;;;;;;;9.95;70.10;100873.97;6123824;23;20025;-62
2021/11/24 02:29:23;;;;;;;23.27;15.40;;;;;;;9.96;70.03;100866.91;6097746;23;20029;-61
2021/11/24 02:31:53;;;;;;;20.67;13.75;;;;;;;9.96;70.18;100869.53;6123806;23;20029;-62
2021/11/24 02:34:21;;;;;;;22.73;14.85;;;;;;;9.96;69.93;100862.53;6123653;23;20092;-62
2021/11/24 02:36:47;;;;;;;16.60;13.27;;;;;;;9.96;69.65;100859.91;6123865;23;20017;-62
2021/11/24 02:39:15;;;;;;;18.25;13.30;;;;;;;9.95;69.86;100859.94;6123653;23;20022;-62
2021/11/24 02:41:42;;;;;;;21.13;14.40;;;;;;;9.93;69.80;100853.88;6123540;23;20052;-61
2021/11/24 02:44:36;;;;;;;17.45;13.13;;;;;;;9.88;70.27;100854.06;6097724;23;20057;-63
2021/11/24 02:47:12;;;;;;;19.73;12.55;;;;;;;9.84;70.17;100853.31;6123272;23;20026;-63
2021/11/24 02:49:41;;;;;;;15.90;11.20;;;;;;;9.84;69.82;100847.19;6097513;23;20026;-63
2021/11/24 02:52:09;;;;;;;19.58;10.88;;;;;;;9.81;69.69;100842.03;6122218;23;20022;-61
2021/11/24 02:54:37;;;;;;;16.92;10.93;;;;;;;9.78;69.96;100849.13;6097926;23;20022;-61
2021/11/24 02:57:06;;;;;;;14.38;10.63;;;;;;;9.75;69.81;100838.72;6123533;23;20040;-63
2021/11/24 02:59:32;;;;;;;13.82;10.48;;;;;;;9.73;70.03;100835.28;6097662;23;20024;-62
2021/11/24 03:02:00;;;;;;;14.38;10.63;;;;;;;9.73;69.92;100837.06;6123606;23;20092;-62
2021/11/24 03:04:28;;;;;;;17.25;11.60;;;;;;;9.70;69.98;100835.41;6123256;23;20030;-62
2021/11/24 03:06:57;;;;;;;14.52;10.43;;;;;;;9.69;70.03;100830.19;6097365;23;20022;-61
2021/11/24 03:09:25;;;;;;;15.07;10.25;;;;;;;9.70;70.09;100832.78;6097379;23;20026;-62
2021/11/24 03:11:54;;;;;;;14.75;9.35;;;;;;;9.69;70.14;100825.81;6123466;23;20021;-63
2021/11/24 03:14:21;;;;;;;14.95;10.00;;;;;;;9.70;70.07;100824.88;6123243;23;20026;-61
2021/11/24 03:16:55;;;;;;;17.33;10.45;;;;;;;9.70;70.01;100817.00;6123534;23;20022;-63
2021/11/24 03:19:22;;;;;;;16.13;9.90;;;;;;;9.71;69.99;100800.31;6097571;23;20022;-61
2021/11/24 03:21:49;;;;;;;20.25;11.30;;;;;;;9.72;70.11;100809.91;6123305;23;20060;-61
2021/11/24 03:24:16;;;;;;;13.65;10.68;;;;;;;9.73;70.17;100808.13;6123845;23;20479;-63
2021/11/24 03:26:42;;;;;;;13.55;9.70;;;;;;;9.72;70.03;100804.63;6123476;23;20021;-61
2021/11/24 03:29:09;;;;;;;19.77;10.40;;;;;;;9.73;70.01;100795.84;6123402;23;20045;-61
2021/11/24 03:31:36;;;;;;;16.67;10.65;;;;;;;9.73;70.03;100797.63;6123369;23;20542;-62
2021/11/24 03:34:03;;;;;;;15.35;9.93;;;;;;;9.71;69.84;100795.03;6097816;23;20412;-61
2021/11/24 03:36:29;;;;;;;13.48;9.85;;;;;;;9.72;69.91;100794.13;6123010;23;20518;-61
2021/11/24 03:38:56;;;;;;;12.02;8.65;;;;;;;9.71;69.86;100784.53;6123483;23;20026;-61
2021/11/24 03:41:23;;;;;;;13.27;8.60;;;;;;;9.68;69.70;100779.38;6123219;23;20029;-62
2021/11/24 03:43:49;;;;;;;9.90;8.05;;;;;;;9.66;69.82;100778.59;6097536;23;20034;-62
2021/11/24 03:46:16;;;;;;;9.35;7.57;;;;;;;9.64;69.85;100783.03;6123928;23;20022;-61
2021/11/24 03:48:43;;;;;;;9.63;6.95;;;;;;;9.60;69.87;100776.16;6123391;23;20030;-62
2021/11/24 03:51:10;;;;;;;9.63;7.57;;;;;;;9.57;69.63;100777.13;6122825;23;20070;-61
2021/11/24 03:53:40;;;;;;;8.20;6.68;;;;;;;9.55;69.84;100775.47;6123311;23;20026;-61
2021/11/24 03:56:12;;;;;;;8.68;6.40;;;;;;;9.50;70.23;100773.88;6123860;23;20033;-61
2021/11/24 03:58:38;;;;;;;9.27;7.35;;;;;;;9.53;69.96;100780.78;6123137;23;20022;-62
2021/11/24 04:01:06;;;;;;;11.10;7.10;;;;;;;9.52;70.00;100785.19;6123258;23;20026;-61
2021/11/24 04:03:33;;;;;;;82.43;11.02;;;;;;;9.54;70.13;100789.53;6097686;23;20045;-63
2021/11/24 04:06:00;;;;;;;18.40;8.90;;;;;;;9.54;70.17;100777.28;6124355;23;20030;-62
2021/11/24 04:08:26;;;;;;;11.20;8.25;;;;;;;9.55;70.10;100772.84;6099678;23;20024;-61
2021/11/24 04:10:53;;;;;;;11.50;8.10;;;;;;;9.57;70.33;100771.03;6125189;23;20022;-63
2021/11/24 04:13:20;;;;;;;11.70;8.38;;;;;;;9.57;70.25;100766.63;6099020;23;20029;-62
2021/11/24 04:15:47;;;;;;;10.18;6.90;;;;;;;9.58;69.99;100763.09;6099560;23;20052;-61
2021/11/24 04:18:13;;;;;;;8.30;6.05;;;;;;;9.60;70.15;100765.66;6125141;23;20084;-62
2021/11/24 04:20:40;;;;;;;9.32;6.82;;;;;;;9.60;69.98;100761.25;6124580;23;20033;-64
2021/11/24 04:23:06;;;;;;;11.85;8.45;;;;;;;9.62;70.11;100761.22;6124602;23;20085;-61
2021/11/24 04:25:33;;;;;;;12.13;9.15;;;;;;;9.64;69.94;100768.13;6099658;23;20030;-62
2021/11/24 04:28:00;;;;;;;17.05;9.93;;;;;;;9.65;69.95;100763.72;6125464;23;20037;-63
2021/11/24 04:30:27;;;;;;;20.58;10.73;;;;;;;9.67;69.98;100753.13;6125015;23;20029;-62
2021/11/24 04:32:53;;;;;;;52.92;10.60;;;;;;;9.67;69.82;100753.13;6124874;23;20096;-62
2021/11/24 04:35:20;;;;;;;70.70;11.02;;;;;;;9.67;69.76;100745.25;6125182;23;20026;-63
2021/11/24 04:37:47;;;;;;;84.95;11.20;;;;;;;9.68;69.89;100749.63;6125142;23;20359;-61
2021/11/24 04:40:15;;;;;;;45.10;10.23;;;;;;;9.66;70.01;100752.28;6099197;23;20018;-61
2021/11/24 04:42:42;;;;;;;28.33;9.82;;;;;;;9.65;69.85;100750.59;6125058;23;20029;-62
2021/11/24 04:45:10;;;;;;;30.77;9.93;;;;;;;9.64;69.65;100744.47;6098800;23;20037;-62
2021/11/24 04:47:36;;;;;;;13.50;7.97;;;;;;;9.63;69.66;100747.13;6099209;23;20026;-63
2021/11/24 04:50:04;;;;;;;11.13;8.02;;;;;;;9.62;69.66;100742.81;6124639;23;20413;-62
2021/11/24 04:52:31;;;;;;;13.05;8.20;;;;;;;9.60;69.46;100739.34;6099197;23;20032;-63
2021/11/24 04:54:58;;;;;;;43.20;8.90;;;;;;;9.59;69.64;100746.41;6124347;23;20463;-61
2021/11/24 04:57:24;;;;;;;21.77;7.60;;;;;;;9.58;69.46;100742.06;6124983;23;20395;-61
2021/11/24 04:59:51;;;;;;;16.27;8.68;;;;;;;9.57;69.58;100745.59;6124405;23;20032;-63
2021/11/24 05:02:18;;;;;;;32.88;8.77;;;;;;;9.57;69.79;100744.75;6124932;23;20100;-62
2021/11/24 05:04:44;;;;;;;24.42;8.50;;;;;;;9.57;69.67;100739.50;6124474;23;20076;-62
2021/11/24 05:07:11;;;;;;;11.93;7.68;;;;;;;9.57;69.63;100740.34;6124860;23;20057;-61
2021/11/24 05:09:57;;;;;;;11.30;7.38;;;;;;;9.56;69.39;100738.63;6124404;23;20057;-62
2021/11/24 05:12:24;;;;;;;9.88;6.82;;;;;;;9.55;69.54;100730.78;6123233;23;20096;-62
2021/11/24 05:14:52;;;;;;;8.30;5.90;;;;;;;9.54;69.38;100732.59;6124189;23;20097;-61
2021/11/24 05:17:21;;;;;;;10.48;6.45;;;;;;;9.52;69.53;100732.63;6098824;23;20032;-62
2021/11/24 05:19:49;;;;;;;9.85;6.88;;;;;;;9.52;69.30;100734.41;6124396;23;20022;-62
2021/11/24 05:22:17;;;;;;;9.18;6.95;;;;;;;9.49;69.46;100730.13;6124762;23;20733;-61
2021/11/24 05:24:48;;;;;;;6.65;5.22;;;;;;;9.49;69.69;100730.13;6122906;23;20057;-62
2021/11/24 05:27:15;;;;;;;10.90;7.90;;;;;;;9.49;69.80;100726.63;6124352;23;20022;-61
2021/11/24 05:29:41;;;;;;;19.40;8.13;;;;;;;9.49;69.78;100735.38;6124056;23;20033;-61
2021/11/24 05:32:08;;;;;;;18.23;7.38;;;;;;;9.48;69.45;100731.03;6124563;23;20037;-63
2021/11/24 05:34:35;;;;;;;23.42;8.30;;;;;;;9.47;69.40;100728.47;6124048;23;20065;-61
2021/11/24 05:37:03;;;;;;;18.17;8.32;;;;;;;9.46;69.68;100730.22;6124398;23;20030;-63
2021/11/24 05:39:32;;;;;;;60.95;9.85;;;;;;;9.45;69.59;100731.13;6124328;23;20022;-62
2021/11/24 05:41:58;;;;;;;10.40;7.82;;;;;;;9.44;69.69;100725.94;6098177;23;20066;-63
2021/11/24 05:44:25;;;;;;;9.30;7.75;;;;;;;9.44;69.74;100728.56;6124312;23;20026;-61
2021/11/24 05:46:58;;;;;;;11.13;7.45;;;;;;;9.41;69.84;100729.53;6124134;23;20018;-61
2021/11/24 05:49:26;;;;;;;12.93;8.18;;;;;;;9.43;69.69;100722.47;6098208;23;20022;-61
2021/11/24 05:51:54;;;;;;;14.95;8.40;;;;;;;9.45;69.45;100723.25;6098314;23;20041;-62
2021/11/24 05:54:22;;;;;;;11.75;8.32;;;;;;;9.44;69.46;100716.28;6123789;23;20034;-61
2021/11/24 05:56:48;;;;;;;11.95;8.50;;;;;;;9.44;69.52;100713.66;6124158;23;20024;-61
2021/11/24 05:59:18;;;;;;;10.32;7.72;;;;;;;9.43;69.59;100722.47;6123837;23;20459;-62
2021/11/24 06:01:45;;;;;;;9.68;7.20;;;;;;;9.45;69.37;100717.13;6098064;23;20022;-62
2021/11/24 06:04:13;;;;;;;12.35;8.63;;;;;;;9.45;69.63;100699.59;6097839;23;20030;-61
2021/11/24 06:06:39;;;;;;;12.60;8.48;;;;;;;9.45;69.50;100707.47;6097503;23;20018;-62
2021/11/24 06:09:07;;;;;;;13.00;8.45;;;;;;;9.43;69.38;100709.31;6123799;23;20343;-62
2021/11/24 06:11:34;;;;;;;10.55;8.15;;;;;;;9.43;69.39;100703.19;6097745;23;20029;-61
2021/11/24 06:14:01;;;;;;;11.75;8.30;;;;;;;9.40;69.31;100704.19;6123659;23;20018;-62
2021/11/24 06:16:27;;;;;;;11.23;7.70;;;;;;;9.38;69.25;100703.34;6123842;23;20034;-62
2021/11/24 06:18:54;;;;;;;13.00;8.93;;;;;;;9.35;69.30;100701.69;6123858;23;20028;-62
2021/11/24 06:21:22;;;;;;;13.07;8.48;;;;;;;9.32;69.33;100696.59;6123777;23;20025;-62
2021/11/24 06:23:50;;;;;;;11.95;8.27;;;;;;;9.31;69.16;100691.38;6098143;23;20053;-62
2021/11/24 06:26:20;;;;;;;13.50;9.18;;;;;;;9.29;69.44;100690.56;6098275;23;20022;-61
2021/11/24 06:28:48;;;;;;;14.32;9.35;;;;;;;9.28;69.49;100692.34;6123443;23;20018;-61
2021/11/24 06:31:15;;;;;;;12.30;8.25;;;;;;;9.28;69.51;100691.47;6123532;23;20018;-62
2021/11/24 06:33:43;;;;;;;15.18;8.60;;;;;;;9.26;69.64;100694.16;6123415;23;20069;-62
2021/11/24 06:36:09;;;;;;;14.77;8.20;;;;;;;9.25;69.65;100693.31;6097946;23;20030;-62
2021/11/24 06:38:36;;;;;;;13.18;8.27;;;;;;;9.27;69.44;100689.78;6124038;23;20022;-62
2021/11/24 06:41:03;;;;;;;21.63;8.35;;;;;;;9.25;69.54;100684.56;6123734;23;20025;-62
2021/11/24 06:43:30;;;;;;;18.85;8.38;;;;;;;9.25;69.57;100687.19;6123399;23;20037;-62
2021/11/24 06:45:57;;;;;;;18.17;8.60;;;;;;;9.24;69.55;100690.75;6123772;23;20018;-64
2021/11/24 06:48:23;;;;;;;23.52;9.70;;;;;;;9.22;69.47;100690.81;6123104;23;20030;-61
2021/11/24 06:50:50;;;;;;;32.42;8.88;;;;;;;9.21;69.54;100685.59;6123417;23;20486;-62
2021/11/24 06:53:17;;;;;;;43.35;9.23;;;;;;;9.19;69.30;100683.03;6123807;23;20018;-62
2021/11/24 06:55:43;;;;;;;14.82;8.63;;;;;;;9.16;69.21;100692.78;6123844;23;20040;-62
2021/11/24 06:58:12;;;;;;;27.35;9.27;;;;;;;9.14;69.73;100687.59;6123599;23;20026;-60
2021/11/24 07:00:38;;;;;;;13.55;8.32;;;;;;;9.12;69.54;100689.41;6097762;23;20427;-64
2021/11/24 07:03:05;;;;;;;14.57;8.63;;;;;;;9.12;69.83;100687.63;6123634;23;20022;-61
2021/11/24 07:05:32;;;;;;;12.10;7.93;;;;;;;9.12;69.87;100689.41;6123256;23;20053;-63
2021/11/24 07:07:59;;;;;;;12.77;7.70;;;;;;;9.13;69.84;100691.13;6123568;23;20064;-62
2021/11/24 07:10:26;;;;;;;14.23;9.20;;;;;;;9.13;69.98;100688.50;6096954;23;20343;-61
2021/11/24 07:12:53;;;;;;;13.73;8.38;;;;;;;9.16;70.18;100690.16;6123177;23;20029;-62
2021/11/24 07:15:20;;;;;;;13.93;7.68;;;;;;;9.18;70.03;100691.81;6123142;23;20018;-61
2021/11/24 07:17:46;;;;;;;14.20;8.25;;;;;;;9.20;70.04;100689.97;6097522;23;20026;-61
2021/11/24 07:20:13;;;;;;;17.17;8.23;;;;;;;9.22;69.94;100693.44;6123409;23;20030;-62
2021/11/24 07:22:40;;;;;;;12.13;7.75;;;;;;;9.25;69.83;100687.19;6122182;23;20026;-61
2021/11/24 07:25:08;;;;;;;10.73;7.35;;;;;;;9.27;69.95;100690.63;6097524;23;20022;-61
2021/11/24 07:27:36;;;;;;;12.07;7.35;;;;;;;9.29;70.05;100687.94;6123578;23;20044;-62
2021/11/24 07:30:04;;;;;;;10.07;7.35;;;;;;;9.30;69.88;100692.31;6123276;23;20022;-61
2021/11/24 07:32:31;;;;;;;10.10;7.28;;;;;;;9.31;69.40;100683.50;6097607;23;20036;-63
2021/11/24 07:34:58;;;;;;;10.63;6.72;;;;;;;9.31;69.63;100692.22;6122816;23;20033;-62
2021/11/24 07:37:25;;;;;;;11.00;6.72;;;;;;;9.31;69.70;100686.13;6123533;23;20384;-62
2021/11/24 07:39:52;;;;;;;9.90;6.47;;;;;;;9.32;69.58;100685.19;6122883;23;20034;-63
2021/11/24 07:42:19;;;;;;;10.68;7.22;;;;;;;9.32;69.46;100682.56;6123352;23;20033;-62
2021/11/24 07:44:46;;;;;;;11.63;7.47;;;;;;;9.33;69.41;100684.28;6123852;23;20029;-62
2021/11/24 07:47:12;;;;;;;11.75;7.40;;;;;;;9.30;69.44;100677.38;6121790;23;20471;-63
2021/11/24 07:49:39;;;;;;;10.85;7.22;;;;;;;9.30;69.39;100674.75;6123177;23;20025;-63
2021/11/24 07:52:07;;;;;;;11.63;7.32;;;;;;;9.31;69.60;100680.88;6097793;23;20455;-63
2021/11/24 07:54:34;;;;;;;9.93;6.53;;;;;;;9.32;69.40;100680.81;6123481;23;20033;-62
2021/11/24 07:57:01;;;;;;;9.45;6.82;;;;;;;9.33;69.64;100677.28;6123270;23;20022;-63
2021/11/24 07:59:28;;;;;;;11.15;7.45;;;;;;;9.33;69.38;100674.63;6123348;23;20030;-64
2021/11/24 08:01:54;;;;;;;8.93;6.88;;;;;;;9.35;69.26;100674.59;6123212;23;20036;-62
2021/11/24 08:04:21;;;;;;;9.68;6.57;;;;;;;9.34;69.17;100678.97;6123441;23;20029;-64
2021/11/24 08:06:48;;;;;;;8.18;6.13;;;;;;;9.34;69.19;100678.09;6123276;23;20033;-62
2021/11/24 08:09:15;;;;;;;10.13;7.15;;;;;;;9.32;69.02;100674.69;6122864;23;20030;-63
2021/11/24 08:11:41;;;;;;;11.38;7.55;;;;;;;9.29;68.94;100674.81;6122022;23;20029;-62
2021/11/24 08:14:08;;;;;;;11.40;8.30;;;;;;;9.25;68.96;100674.94;6123285;23;20032;-64
2021/11/24 08:16:35;;;;;;;10.70;8.02;;;;;;;9.23;68.98;100676.75;6123143;23;20455;-62
2021/11/24 08:19:02;;;;;;;11.48;8.48;;;;;;;9.21;69.33;100670.69;6123462;23;20037;-62
2021/11/24 08:21:28;;;;;;;12.65;9.55;;;;;;;9.21;69.40;100667.22;6122674;23;20525;-63
2021/11/24 08:23:55;;;;;;;12.57;9.25;;;;;;;9.21;69.58;100659.31;6123464;23;20354;-62
2021/11/24 08:26:24;;;;;;;11.23;8.35;;;;;;;9.22;69.64;100663.66;6121473;23;20068;-62
2021/11/24 08:28:51;;;;;;;11.20;8.43;;;;;;;9.23;69.83;100668.84;6123358;23;20022;-63
2021/11/24 08:31:18;;;;;;;11.43;7.35;;;;;;;9.22;69.91;100661.91;6096978;23;20029;-62
2021/11/24 08:33:44;;;;;;;9.70;6.60;;;;;;;9.25;70.08;100658.31;6097631;23;20026;-64
2021/11/24 08:36:12;;;;;;;5.60;4.70;;;;;;;9.27;69.90;100658.25;6122716;23;20030;-62
2021/11/24 08:38:39;;;;;;;7.90;4.95;;;;;;;9.28;69.97;100655.56;6122999;23;20040;-64
2021/11/24 08:41:06;;;;;;;7.93;5.65;;;;;;;9.33;70.48;100655.38;6122829;23;20022;-62
2021/11/24 08:43:33;;;;;;;9.50;6.35;;;;;;;9.37;70.29;100652.59;6097637;23;20032;-64
2021/11/24 08:45:59;;;;;;;7.90;6.10;;;;;;;9.42;70.15;100638.44;6121592;23;20341;-63
2021/11/24 08:48:26;;;;;;;6.35;4.80;;;;;;;9.48;70.05;100646.06;6122825;23;20022;-62
2021/11/24 08:50:53;;;;;;;8.02;5.43;;;;;;;9.50;69.78;100645.09;6122811;23;20018;-63
2021/11/24 08:53:20;;;;;;;7.15;5.20;;;;;;;9.54;69.77;100644.97;6124949;23;20018;-63
2021/11/24 08:55:47;;;;;;;8.57;5.45;;;;;;;9.56;69.28;100638.75;6124425;23;20021;-63
2021/11/24 08:58:14;;;;;;;8.00;6.05;;;;;;;9.57;69.33;100636.97;6124955;23;20017;-62
2021/11/24 09:00:42;;;;;;;8.18;5.18;;;;;;;9.56;69.34;100636.13;6124660;23;20439;-62
2021/11/24 09:03:12;;;;;;;6.97;5.80;;;;;;;9.57;69.31;100635.19;6098863;23;20045;-62
2021/11/24 09:05:39;;;;;;;7.07;4.63;;;;;;;9.59;69.55;100630.75;6124468;23;20427;-63
2021/11/24 09:08:06;;;;;;;8.82;5.80;;;;;;;9.60;69.51;100635.09;6099169;23;20391;-62
2021/11/24 09:10:34;;;;;;;6.68;4.43;;;;;;;9.63;69.40;100634.09;6124124;23;20022;-62
2021/11/24 09:13:02;;;;;;;5.43;4.57;;;;;;;9.64;69.41;100636.69;6098631;23;20026;-64
2021/11/24 09:15:29;;;;;;;5.82;4.60;;;;;;;9.65;69.05;100630.50;6122982;23;20032;-62
2021/11/24 09:18:13;;;;;;;;;;;;;;;9.66;69.23;100634.00;6125353;23;20025;-62
2021/11/24 09:20:39;;;;;;;8.77;5.40;;;;;;;9.69;68.80;100628.63;6124477;23;19924;-61
2021/11/24 09:23:06;;;;;;;9.55;6.82;;;;;;;9.66;68.47;100626.09;6124500;23;20467;-63
2021/11/24 09:25:48;;;;;;;8.68;6.50;;;;;;;9.64;68.77;100622.66;6124666;23;20022;-63
2021/11/24 09:28:18;;;;;;;9.25;6.85;;;;;;;9.60;68.91;100621.94;6124277;23;20458;-63
2021/11/24 09:30:45;;;;;;;10.20;6.60;;;;;;;9.57;68.90;100627.31;6098557;23;20410;-62
2021/11/24 09:33:12;;;;;;;8.60;6.45;;;;;;;9.55;68.98;100620.41;6124543;23;20348;-62
2021/11/24 09:35:39;;;;;;;9.10;6.75;;;;;;;9.54;68.86;100618.69;6124658;23;20084;-61
2021/11/24 09:38:06;;;;;;;7.63;6.18;;;;;;;9.51;68.93;100614.41;6124376;23;20033;-63
2021/11/24 09:40:34;;;;;;;7.75;5.90;;;;;;;9.49;68.95;100614.47;6124352;23;20018;-63
2021/11/24 09:43:06;;;;;;;8.20;5.75;;;;;;;9.46;68.62;100613.75;6098804;23;20029;-62
2021/11/24 09:45:35;;;;;;;6.00;4.82;;;;;;;9.44;68.97;100610.31;6098904;23;20026;-63
2021/11/24 09:48:03;;;;;;;7.03;4.50;;;;;;;9.42;69.21;100614.78;6098745;23;20022;-64
2021/11/24 09:50:36;;;;;;;5.90;4.30;;;;;;;9.40;69.59;100606.94;6098515;23;20034;-61
2021/11/24 09:53:03;;;;;;;4.63;3.47;;;;;;;9.42;69.71;100599.00;6098737;23;20026;-63
2021/11/24 09:55:34;;;;;;;4.82;3.50;;;;;;;9.45;69.96;100597.09;6098352;23;20452;-64
2021/11/24 09:58:01;;;;;;;4.25;3.47;;;;;;;9.51;69.99;100599.50;6098638;23;20038;-63
2021/11/24 10:00:27;;;;;;;5.85;4.40;;;;;;;9.58;70.03;100591.38;6098515;23;20030;-62
2021/11/24 10:02:58;;;;;;;6.63;4.70;;;;;;;9.63;69.99;100582.41;6124285;23;20344;-62
2021/11/24 10:05:26;;;;;;;7.78;5.55;;;;;;;9.69;69.71;100578.69;6098599;23;20044;-62
2021/11/24 10:07:53;;;;;;;5.53;3.97;;;;;;;9.72;69.17;100575.06;6098251;23;20029;-64
2021/11/24 10:10:20;;;;;;;6.85;3.95;;;;;;;9.75;69.05;100565.25;6098443;23;20028;-62
2021/11/24 10:12:48;;;;;;;5.82;4.22;;;;;;;9.77;69.25;100563.41;6124341;23;20025;-62
2021/11/24 10:15:39;;;;;;;5.45;3.15;;;;;;;9.75;69.14;100553.88;6123922;23;20057;-62
2021/11/24 10:18:16;;;;;;;6.80;4.65;;;;;;;9.80;69.10;100551.06;6098356;23;20489;-62
2021/11/24 10:20:55;;;;;;;6.57;4.72;;;;;;;9.81;68.72;100548.38;6123789;23;20022;-62
2021/11/24 10:23:26;;;;;;;7.57;5.78;;;;;;;9.81;68.50;100547.53;6124201;23;20060;-61
2021/11/24 10:26:11;;;;;;;10.30;7.10;;;;;;;9.81;68.37;100542.25;6124295;23;20022;-61
2021/11/24 10:28:37;;;;;;;;;;;;;;;9.76;68.72;100543.31;6124787;23;20026;-61
2021/11/24 10:31:22;;;;;;;9.57;7.00;;;;;;;9.73;68.62;100540.81;6123990;23;19924;-62
2021/11/24 10:33:49;;;;;;;10.80;7.55;;;;;;;9.76;68.52;100545.09;6123995;23;20018;-63
2021/11/24 10:36:16;;;;;;;11.52;7.55;;;;;;;9.71;68.48;100540.00;6124019;23;20030;-62
2021/11/24 10:38:46;;;;;;;13.82;8.25;;;;;;;9.67;68.70;100538.44;6124012;23;20041;-62
2021/11/24 10:41:25;;;;;;;13.57;8.95;;;;;;;9.62;68.65;100532.50;6123808;23;20025;-61
2021/11/24 10:44:10;;;;;;;12.52;9.10;;;;;;;9.64;68.36;100530.66;6123944;23;20026;-62
2021/11/24 10:46:37;;;;;;;12.48;8.27;;;;;;;9.60;68.69;100524.69;6124062;23;20028;-62
2021/11/24 10:49:07;;;;;;;12.27;8.48;;;;;;;9.58;68.80;100515.16;6123756;23;20044;-66
2021/11/24 10:51:40;;;;;;;12.75;8.65;;;;;;;9.56;68.96;100512.59;6098171;23;20022;-62
2021/11/24 10:54:10;;;;;;;;;;;;;;;9.58;69.03;100513.38;6098634;23;20030;-62
2021/11/24 10:56:58;;;;;;;12.43;7.43;;;;;;;9.58;68.88;100510.75;6123704;23;20234;-62
2021/11/24 10:59:25;;;;;;;11.80;7.90;;;;;;;9.61;68.53;100504.53;6123232;23;20037;-62
2021/11/24 11:01:52;;;;;;;15.07;7.90;;;;;;;9.61;68.54;100501.91;6123447;23;20029;-62
2021/11/24 11:04:19;;;;;;;11.05;7.15;;;;;;;9.60;68.67;100497.53;6123372;23;20018;-62
2021/11/24 11:06:46;;;;;;;12.65;8.23;;;;;;;9.59;68.58;100490.56;6122037;23;20030;-63
2021/11/24 11:09:12;;;;;;;13.02;8.20;;;;;;;9.58;68.30;100483.63;6122311;23;20105;-63
2021/11/24 11:11:39;;;;;;;13.45;7.80;;;;;;;9.58;68.62;100480.97;6123866;23;20379;-62
2021/11/24 11:14:19;;;;;;;12.15;8.00;;;;;;;9.50;68.38;100476.03;6123807;23;20022;-64
2021/11/24 11:16:52;;;;;;;11.98;7.95;;;;;;;9.49;68.07;100475.19;6123727;23;20032;-62
2021/11/24 11:19:45;;;;;;;12.52;7.60;;;;;;;9.40;68.40;100472.94;6123772;23;20097;-61
2021/11/24 11:22:17;;;;;;;12.90;7.53;;;;;;;9.38;68.47;100473.00;6097573;23;20041;-64
2021/11/24 11:24:44;;;;;;;13.25;7.75;;;;;;;9.39;68.65;100472.06;6123705;23;20033;-64
2021/11/24 11:27:11;;;;;;;12.38;7.45;;;;;;;9.39;69.03;100458.09;6123820;23;20396;-61
2021/11/24 11:29:40;;;;;;;10.73;7.18;;;;;;;9.39;69.37;100455.47;6097819;23;20030;-63